createdAt,value
2023-05-14T00:01:48.272Z,4.60
2023-05-14T00:04:18.524Z,4.68
2023-05-14T00:06:45.869Z,4.03
2023-05-14T00:09:13.234Z,4.22
2023-05-14T00:11:40.001Z,5.57
2023-05-14T00:14:06.602Z,4.40
2023-05-14T00:16:33.194Z,4.10
2023-05-14T00:18:59.776Z,4.30
2023-05-14T00:21:29.192Z,3.90
2023-05-14T00:23:55.775Z,3.95
2023-05-14T00:26:23.196Z,4.70
2023-05-14T00:28:50.020Z,4.22
2023-05-14T00:31:16.561Z,4.00
2023-05-14T00:33:43.181Z,6.43
2023-05-14T00:36:09.719Z,4.53
2023-05-14T00:38:36.252Z,4.85
2023-05-14T00:41:02.797Z,3.92
2023-05-14T00:43:29.251Z,4.13
2023-05-14T00:45:55.891Z,5.25
2023-05-14T00:48:22.974Z,4.30
2023-05-14T00:50:49.785Z,6.10
2023-05-14T00:53:16.814Z,4.50
2023-05-14T00:55:43.660Z,4.50
2023-05-14T00:58:12.555Z,4.28
2023-05-14T01:00:40.169Z,4.35
2023-05-14T01:03:08.031Z,4.22
2023-05-14T01:05:59.480Z,5.05
2023-05-14T01:08:44.376Z,4.68
2023-05-14T01:11:15.312Z,7.38
2023-05-14T01:14:16.691Z,5.13
2023-05-14T01:16:43.796Z,4.82
2023-05-14T01:19:21.432Z,5.28
2023-05-14T01:21:48.042Z,4.80
2023-05-14T01:24:17.689Z,7.65
2023-05-14T01:26:44.338Z,4.75
2023-05-14T01:29:20.038Z,5.38
2023-05-14T01:31:47.440Z,4.85
2023-05-14T01:34:14.805Z,4.88
2023-05-14T01:36:42.210Z,5.20
2023-05-14T01:39:08.848Z,5.25
2023-05-14T01:41:36.037Z,6.15
2023-05-14T01:44:02.601Z,5.35
2023-05-14T01:46:32.728Z,5.40
2023-05-14T01:49:00.258Z,5.45
2023-05-14T01:51:27.155Z,5.38
2023-05-14T01:53:53.630Z,5.47
2023-05-14T01:56:20.941Z,5.53
2023-05-14T01:58:47.844Z,5.65
2023-05-14T02:01:14.722Z,5.50
2023-05-14T02:03:41.338Z,5.75
2023-05-14T02:06:07.876Z,5.68
2023-05-14T02:08:34.387Z,5.60
2023-05-14T02:11:00.870Z,5.82
2023-05-14T02:13:27.718Z,6.63
2023-05-14T02:15:54.229Z,5.60
2023-05-14T02:18:20.786Z,6.50
2023-05-14T02:20:50.469Z,6.38
2023-05-14T02:23:16.984Z,6.97
2023-05-14T02:25:44.478Z,7.82
2023-05-14T02:28:11.267Z,9.95
2023-05-14T02:30:38.069Z,7.10
2023-05-14T02:33:04.838Z,7.78
2023-05-14T02:35:31.870Z,7.50
2023-05-14T02:37:58.465Z,7.95
2023-05-14T02:40:25.571Z,7.43
2023-05-14T02:42:52.292Z,7.55
2023-05-14T02:45:18.823Z,8.15
2023-05-14T02:47:45.957Z,7.82
2023-05-14T02:50:12.453Z,8.07
2023-05-14T02:52:38.951Z,7.82
2023-05-14T02:55:05.971Z,6.88
2023-05-14T02:57:32.502Z,7.70
2023-05-14T02:59:58.978Z,7.40
2023-05-14T03:02:25.824Z,7.85
2023-05-14T03:04:53.349Z,9.73
2023-05-14T03:07:23.465Z,9.50
2023-05-14T03:12:16.689Z,9.82
2023-05-14T03:14:43.157Z,10.10
2023-05-14T03:17:09.830Z,11.48
2023-05-14T03:19:36.373Z,11.75
2023-05-14T03:22:03.143Z,12.43
2023-05-14T03:24:30.265Z,13.02
2023-05-14T03:26:57.118Z,12.38
2023-05-14T03:29:23.673Z,11.25
2023-05-14T03:31:50.290Z,12.57
2023-05-14T03:34:16.829Z,12.23
2023-05-14T03:36:43.310Z,10.95
2023-05-14T03:39:09.828Z,10.82
2023-05-14T03:41:36.381Z,11.55
2023-05-14T03:44:02.866Z,10.90
2023-05-14T03:46:29.640Z,10.50
2023-05-14T03:48:56.226Z,10.10
2023-05-14T03:51:23.025Z,10.40
2023-05-14T03:53:49.678Z,10.18
2023-05-14T03:56:16.136Z,10.23
2023-05-14T03:58:42.618Z,9.65
2023-05-14T04:01:09.120Z,11.68
2023-05-14T04:03:35.775Z,9.98
2023-05-14T04:06:02.949Z,10.77
2023-05-14T04:08:30.055Z,8.45
2023-05-14T04:10:56.645Z,8.40
2023-05-14T04:13:23.478Z,8.90
2023-05-14T04:15:50.113Z,8.15
2023-05-14T04:18:16.645Z,8.68
2023-05-14T04:20:43.309Z,7.88
2023-05-14T04:23:10.027Z,9.10
2023-05-14T04:25:36.534Z,7.95
2023-05-14T04:28:03.036Z,8.43
2023-05-14T04:30:29.559Z,8.38
2023-05-14T04:32:56.094Z,7.65
2023-05-14T04:35:24.801Z,8.10
2023-05-14T04:37:51.661Z,8.30
2023-05-14T04:40:18.143Z,8.93
2023-05-14T04:42:44.656Z,9.05
2023-05-14T04:45:11.792Z,9.18
2023-05-14T04:47:38.423Z,8.85
2023-05-14T04:50:07.477Z,9.15
2023-05-14T04:52:37.749Z,9.15
2023-05-14T04:55:04.748Z,10.10
2023-05-14T04:57:31.774Z,10.75
2023-05-14T04:59:58.372Z,9.80
2023-05-14T05:02:25.230Z,10.00
2023-05-14T05:04:51.890Z,9.73
2023-05-14T05:07:18.407Z,13.48
2023-05-14T05:09:44.979Z,10.93
2023-05-14T05:12:12.428Z,12.38
2023-05-14T05:14:39.384Z,14.40
2023-05-14T05:17:05.888Z,18.20
2023-05-14T05:19:42.555Z,18.20
2023-05-14T05:22:10.538Z,18.33
2023-05-14T05:24:37.149Z,20.33
2023-05-14T05:27:03.909Z,19.45
2023-05-14T05:29:30.375Z,18.05
2023-05-14T05:31:57.275Z,17.35
2023-05-14T05:34:23.901Z,18.13
2023-05-14T05:36:50.412Z,18.10
2023-05-14T05:39:17.027Z,18.92
2023-05-14T05:41:45.946Z,18.25
2023-05-14T05:44:12.498Z,16.55
2023-05-14T05:46:40.488Z,16.90
2023-05-14T05:49:07.011Z,15.80
2023-05-14T05:51:33.553Z,17.27
2023-05-14T05:54:01.189Z,18.42
2023-05-14T05:56:27.640Z,15.82
2023-05-14T05:58:54.149Z,15.82
2023-05-14T06:01:20.617Z,17.08
2023-05-14T06:03:48.554Z,20.27
2023-05-14T06:06:18.516Z,16.55
2023-05-14T06:08:45.037Z,16.02
2023-05-14T06:11:11.555Z,16.67
2023-05-14T06:13:38.138Z,17.35
2023-05-14T06:16:04.813Z,16.45
2023-05-14T06:18:31.408Z,16.35
2023-05-14T06:20:58.217Z,17.33
2023-05-14T06:23:24.696Z,16.13
2023-05-14T06:25:51.165Z,14.70
2023-05-14T06:28:17.743Z,16.15
2023-05-14T06:30:44.322Z,14.52
2023-05-14T06:33:11.662Z,15.90
2023-05-14T06:35:38.505Z,16.67
2023-05-14T06:38:05.082Z,16.50
2023-05-14T06:40:31.563Z,15.38
2023-05-14T06:42:58.058Z,15.07
2023-05-14T06:45:25.074Z,15.10
2023-05-14T06:47:51.984Z,14.98
2023-05-14T06:50:18.537Z,16.17
2023-05-14T06:52:45.123Z,15.87
2023-05-14T06:55:11.624Z,15.17
2023-05-14T06:57:40.551Z,16.87
2023-05-14T07:00:11.148Z,14.85
2023-05-14T07:02:37.684Z,15.17
2023-05-14T07:05:04.302Z,13.80
2023-05-14T07:07:31.157Z,13.53
2023-05-14T07:09:57.741Z,14.07
2023-05-14T07:12:24.701Z,13.07
2023-05-14T07:14:51.192Z,12.37
2023-05-14T07:17:17.762Z,10.80
2023-05-14T07:19:44.287Z,12.37
2023-05-14T07:22:11.204Z,11.73
2023-05-14T07:24:37.881Z,12.00
2023-05-14T07:27:05.078Z,11.90
2023-05-14T07:29:31.541Z,11.63
2023-05-14T07:31:57.998Z,12.20
2023-05-14T07:34:24.580Z,10.90
2023-05-14T07:36:51.128Z,11.20
2023-05-14T07:39:17.652Z,10.77
2023-05-14T07:41:44.312Z,10.50
2023-05-14T07:44:10.783Z,10.23
2023-05-14T07:46:39.788Z,10.07
2023-05-14T07:49:06.264Z,9.87
2023-05-14T07:51:32.782Z,8.70
2023-05-14T07:53:59.316Z,7.80
2023-05-14T07:56:26.314Z,7.23
2023-05-14T07:58:52.962Z,8.10
2023-05-14T08:01:19.479Z,6.47
2023-05-14T08:03:46.643Z,7.57
2023-05-14T08:06:13.323Z,9.33
2023-05-14T08:08:42.778Z,7.03
2023-05-14T08:11:09.291Z,7.20
2023-05-14T08:13:36.524Z,7.90
2023-05-14T08:16:03.522Z,6.03
2023-05-14T08:18:30.204Z,5.90
2023-05-14T08:20:57.949Z,5.10
2023-05-14T08:23:24.558Z,5.43
2023-05-14T08:25:51.058Z,6.50
2023-05-14T08:28:20.918Z,5.30
2023-05-14T08:30:47.689Z,4.33
2023-05-14T08:33:14.192Z,5.10
2023-05-14T08:35:40.683Z,4.27
2023-05-14T08:38:07.213Z,5.20
2023-05-14T08:40:33.767Z,4.70
2023-05-14T08:43:00.814Z,5.10
2023-05-14T08:45:31.271Z,3.80
2023-05-14T08:48:00.730Z,4.00
2023-05-14T08:50:28.475Z,3.45
2023-05-14T08:52:56.541Z,3.00
2023-05-14T08:55:23.012Z,2.87
2023-05-14T08:57:49.776Z,2.87
2023-05-14T09:00:16.485Z,3.40
2023-05-14T09:02:45.277Z,2.47
2023-05-14T09:05:11.972Z,2.58
2023-05-14T09:07:38.511Z,3.67
2023-05-14T09:10:05.615Z,2.40
2023-05-14T09:12:32.165Z,2.93
2023-05-14T09:14:58.872Z,2.30
2023-05-14T09:17:26.412Z,2.40
2023-05-14T09:19:53.059Z,2.17
2023-05-14T09:22:21.110Z,2.30
2023-05-14T09:25:02.085Z,3.17
2023-05-14T09:27:30.246Z,2.93
2023-05-14T09:29:57.223Z,2.10
2023-05-14T09:32:24.646Z,1.93
2023-05-14T09:34:51.618Z,1.50
2023-05-14T09:37:18.619Z,2.00
2023-05-14T09:39:45.210Z,2.20
2023-05-14T09:42:11.679Z,2.73
2023-05-14T09:44:38.191Z,2.27
2023-05-14T09:47:04.967Z,3.20
2023-05-14T09:49:33.855Z,2.57
2023-05-14T09:52:01.246Z,2.03
2023-05-14T09:54:28.262Z,2.00
2023-05-14T09:56:55.840Z,5.80
2023-05-14T09:59:22.609Z,6.10
2023-05-14T10:01:49.613Z,13.90
2023-05-14T10:04:16.164Z,22.13
2023-05-14T10:06:44.993Z,25.43
2023-05-14T10:09:13.531Z,14.45
2023-05-14T10:11:43.417Z,6.20
2023-05-14T10:14:24.731Z,4.83
2023-05-14T10:16:51.749Z,5.57
2023-05-14T10:19:21.224Z,4.97
2023-05-14T10:21:49.440Z,3.45
2023-05-14T10:24:16.477Z,4.80
2023-05-14T10:26:43.300Z,4.57
2023-05-14T10:29:10.203Z,4.13
2023-05-14T10:31:53.744Z,3.53
2023-05-14T10:34:39.930Z,3.23
2023-05-14T10:37:08.850Z,2.30
2023-05-14T10:39:52.513Z,2.33
2023-05-14T10:42:35.502Z,2.10
2023-05-14T10:45:22.273Z,2.23
2023-05-14T10:47:48.963Z,3.77
2023-05-14T10:50:16.295Z,3.97
2023-05-14T10:52:45.913Z,1.73
2023-05-14T10:55:14.813Z,1.88
2023-05-14T10:57:46.549Z,2.80
2023-05-14T11:00:14.286Z,1.50
2023-05-14T11:02:42.509Z,1.23
2023-05-14T11:05:16.388Z,2.87
2023-05-14T11:07:49.556Z,1.97
2023-05-14T11:10:17.973Z,1.63
2023-05-14T11:12:49.257Z,1.80
2023-05-14T11:15:17.694Z,3.33
2023-05-14T11:17:45.321Z,1.70
2023-05-14T11:20:12.370Z,1.97
2023-05-14T11:22:41.239Z,2.17
2023-05-14T11:25:09.751Z,1.50
2023-05-14T11:27:39.347Z,1.43
2023-05-14T11:30:12.248Z,2.17
2023-05-14T11:32:38.928Z,2.93
2023-05-14T11:35:05.776Z,2.30
2023-05-14T11:37:32.330Z,1.63
2023-05-14T11:40:00.438Z,4.00
2023-05-14T11:42:27.150Z,1.70
2023-05-14T11:44:53.756Z,1.90
2023-05-14T11:47:24.743Z,2.10
2023-05-14T11:49:51.290Z,2.40
2023-05-14T11:52:17.785Z,2.50
2023-05-14T11:54:47.410Z,2.83
2023-05-14T11:57:16.300Z,2.55
2023-05-14T11:59:43.217Z,3.45
2023-05-14T12:02:14.320Z,1.97
2023-05-14T12:04:41.938Z,1.33
2023-05-14T12:07:15.245Z,1.50
2023-05-14T12:09:46.515Z,1.60
2023-05-14T12:12:13.098Z,1.93
2023-05-14T12:14:42.829Z,1.47
2023-05-14T12:19:41.421Z,1.63
2023-05-14T12:22:08.715Z,1.73
2023-05-14T12:24:35.298Z,1.57
2023-05-14T12:27:03.687Z,1.03
2023-05-14T12:29:39.441Z,2.23
2023-05-14T12:32:10.275Z,1.40
2023-05-14T12:34:38.003Z,1.30
2023-05-14T12:37:06.100Z,1.70
2023-05-14T12:39:34.061Z,1.93
2023-05-14T12:42:01.038Z,2.83
2023-05-14T12:44:27.981Z,2.00
2023-05-14T12:46:54.832Z,1.93
2023-05-14T12:49:21.346Z,2.30
2023-05-14T12:51:47.898Z,2.60
2023-05-14T12:54:14.382Z,1.20
2023-05-14T12:56:40.881Z,2.20
2023-05-14T12:59:07.454Z,1.60
2023-05-14T13:01:34.503Z,0.83
2023-05-14T13:04:01.266Z,1.20
2023-05-14T13:06:27.772Z,1.20
2023-05-14T13:08:54.678Z,1.60
2023-05-14T13:11:21.460Z,2.47
2023-05-14T13:13:47.963Z,1.13
2023-05-14T13:16:17.450Z,0.93
2023-05-14T13:18:44.240Z,1.50
2023-05-14T13:21:10.825Z,0.80
2023-05-14T13:23:37.594Z,1.00
2023-05-14T13:26:04.124Z,1.10
2023-05-14T13:28:30.602Z,1.37
2023-05-14T13:31:08.262Z,1.20
2023-05-14T13:33:41.205Z,1.60
2023-05-14T13:36:08.468Z,2.37
2023-05-14T13:38:35.662Z,2.33
2023-05-14T13:41:02.525Z,0.97
2023-05-14T13:43:33.649Z,2.27
2023-05-14T13:46:00.345Z,1.10
2023-05-14T13:48:27.149Z,0.93
2023-05-14T13:50:53.951Z,1.07
2023-05-14T13:53:22.117Z,2.30
2023-05-14T13:55:49.591Z,2.77
2023-05-14T13:58:16.786Z,1.40
2023-05-14T14:00:46.309Z,1.37
2023-05-14T14:03:12.820Z,2.80
2023-05-14T14:05:39.440Z,1.47
2023-05-14T14:08:21.946Z,2.83
2023-05-14T14:10:49.758Z,1.03
2023-05-14T14:13:16.395Z,1.30
2023-05-14T14:15:46.308Z,0.87
2023-05-14T14:20:39.956Z,1.20
2023-05-14T14:23:07.131Z,1.17
2023-05-14T14:25:36.407Z,0.93
2023-05-14T14:28:03.007Z,1.55
2023-05-14T14:30:29.637Z,2.20
2023-05-14T14:32:56.142Z,3.13
2023-05-14T14:35:23.223Z,3.30
2023-05-14T14:37:50.004Z,2.13
2023-05-14T14:40:19.880Z,1.37
2023-05-14T14:42:49.618Z,1.30
2023-05-14T14:45:19.266Z,1.15
2023-05-14T14:47:46.552Z,1.25
2023-05-14T14:50:13.457Z,1.10
2023-05-14T14:52:41.626Z,1.30
2023-05-14T14:55:09.116Z,1.30
2023-05-14T14:57:36.061Z,1.03
2023-05-14T15:00:05.438Z,0.80
2023-05-14T15:02:32.261Z,1.25
2023-05-14T15:04:58.903Z,1.40
2023-05-14T15:07:25.565Z,1.13
2023-05-14T15:09:52.096Z,0.70
2023-05-14T15:12:21.712Z,1.17
2023-05-14T15:14:51.060Z,0.80
2023-05-14T15:17:17.866Z,1.60
2023-05-14T15:19:50.286Z,1.57
2023-05-14T15:22:16.835Z,1.50
2023-05-14T15:24:43.309Z,0.80
2023-05-14T15:27:09.934Z,1.47
2023-05-14T15:29:36.473Z,1.60
2023-05-14T15:32:03.193Z,0.77
2023-05-14T15:34:29.682Z,1.27
2023-05-14T15:36:56.223Z,0.80
2023-05-14T15:39:25.689Z,1.43
2023-05-14T15:41:52.303Z,1.00
2023-05-14T15:44:18.822Z,1.10
2023-05-14T15:46:45.350Z,1.77
2023-05-14T15:49:11.957Z,1.80
2023-05-14T15:51:38.443Z,1.10
2023-05-14T15:54:05.024Z,4.20
2023-05-14T15:56:31.534Z,1.13
2023-05-14T15:58:58.157Z,4.40
2023-05-14T16:01:24.775Z,1.27
2023-05-14T16:03:52.503Z,2.07
2023-05-14T16:06:19.434Z,1.20
2023-05-14T16:08:49.189Z,1.43
2023-05-14T16:11:15.685Z,2.00
2023-05-14T16:13:42.183Z,1.93
2023-05-14T16:16:08.772Z,1.60
2023-05-14T16:18:35.548Z,1.37
2023-05-14T16:21:02.257Z,3.23
2023-05-14T16:23:28.794Z,1.87
2023-05-14T16:25:55.870Z,1.60
2023-05-14T16:28:22.676Z,0.93
2023-05-14T16:30:49.222Z,1.50
2023-05-14T16:33:15.693Z,1.67
2023-05-14T16:35:42.213Z,2.47
2023-05-14T16:38:08.732Z,1.53
2023-05-14T16:40:35.613Z,2.93
2023-05-14T16:43:02.194Z,9.07
2023-05-14T16:45:28.680Z,6.37
2023-05-14T16:47:55.466Z,1.60
2023-05-14T16:50:22.195Z,4.63
2023-05-14T16:52:48.852Z,3.93
2023-05-14T16:55:15.411Z,2.03
2023-05-14T16:57:44.949Z,1.37
2023-05-14T17:00:12.222Z,2.78
2023-05-14T17:02:41.901Z,8.37
2023-05-14T17:05:09.766Z,2.45
2023-05-14T17:07:41.379Z,2.00
2023-05-14T17:10:08.392Z,3.20
2023-05-14T17:12:34.859Z,2.93
2023-05-14T17:15:05.670Z,2.37
2023-05-14T17:17:35.672Z,1.60
2023-05-14T17:20:02.193Z,2.20
2023-05-14T17:22:28.828Z,1.50
2023-05-14T17:24:55.361Z,1.70
2023-05-14T17:27:28.431Z,2.13
2023-05-14T17:30:15.067Z,1.60
2023-05-14T17:32:41.823Z,2.33
2023-05-14T17:35:10.651Z,1.50
2023-05-14T17:37:38.710Z,1.60
2023-05-14T17:40:11.434Z,1.40
2023-05-14T17:42:37.930Z,1.40
2023-05-14T17:45:04.914Z,1.47
2023-05-14T17:47:31.431Z,1.33
2023-05-14T17:49:58.107Z,1.90
2023-05-14T17:52:24.720Z,2.93
2023-05-14T17:54:51.235Z,2.30
2023-05-14T17:57:17.786Z,2.40
2023-05-14T17:59:44.386Z,1.60
2023-05-14T18:02:10.997Z,2.23
2023-05-14T18:04:37.536Z,2.07
2023-05-14T18:07:04.355Z,1.70
2023-05-14T18:09:35.661Z,1.40
2023-05-14T18:12:02.134Z,3.13
2023-05-14T18:14:28.750Z,1.10
2023-05-14T18:16:55.682Z,1.23
2023-05-14T18:19:22.402Z,2.70
2023-05-14T18:21:48.975Z,1.63
2023-05-14T18:24:15.598Z,1.30
2023-05-14T18:26:42.221Z,2.07
2023-05-14T18:29:08.715Z,3.10
2023-05-14T18:31:35.326Z,1.10
2023-05-14T18:34:02.011Z,1.40
2023-05-14T18:36:28.555Z,1.20
2023-05-14T18:38:55.080Z,1.73
2023-05-14T18:41:21.625Z,0.90
2023-05-14T18:43:48.112Z,1.40
2023-05-14T18:46:14.646Z,1.70
2023-05-14T18:48:41.260Z,1.17
2023-05-14T18:51:08.026Z,1.50
2023-05-14T18:53:37.308Z,2.00
2023-05-14T18:56:04.212Z,2.63
2023-05-14T18:58:33.084Z,1.88
2023-05-14T19:00:59.715Z,1.25
2023-05-14T19:03:26.325Z,1.50
2023-05-14T19:05:53.557Z,2.42
2023-05-14T19:08:20.160Z,3.63
2023-05-14T19:10:49.345Z,19.63
2023-05-14T19:13:16.242Z,7.90
2023-05-14T19:15:43.410Z,8.38
2023-05-14T19:18:10.026Z,7.90
2023-05-14T19:20:36.631Z,10.07
2023-05-14T19:23:03.295Z,23.85
2023-05-14T19:25:29.904Z,25.90
2023-05-14T19:27:59.135Z,19.08
2023-05-14T19:30:25.672Z,9.15
2023-05-14T19:32:52.231Z,6.85
2023-05-14T19:35:18.775Z,5.88
2023-05-14T19:37:46.270Z,8.40
2023-05-14T19:40:12.810Z,6.00
2023-05-14T19:42:39.366Z,9.90
